ADDS METAR Data INFO
IDs: Format: Raw Decoded Include TAF

Data at: 1117 UTC 21 Feb 2018

PAPM 201456Z AUTO 10005KT CLR M02/M02 A3053 RMK AO2 SLP340 T10171022 55004 PWINO FZRANO $
PAPM 201356Z AUTO 07006KT FEW019 M02/M02 A3050 RMK AO2 SLP332 T10171022 PWINO FZRANO $
PAPM 201321Z AUTO 08006KT BKN023 M02/M02 A3053 RMK AO2 PWINO FZRANO $
PAPM 201256Z AUTO 34003KT FEW025 00/M01 A3054 RMK AO2 PK WND 03051/1219 SLP344 T00001006 PWINO FZRANO $
PAPM 201238Z AUTO 36003KT SCT004 OVC025 00/M01 A3054 RMK AO2 PK WND 03051/1219 PWINO FZRANO $
PAPM 201227Z AUTO 00000KT BKN004 BKN025 OVC032 00/M01 A3054 RMK AO2 PK WND 03051/1219 PWINO FZRANO $
PAPM 201216Z AUTO 18003KT SCT004 BKN023 OVC032 00/M01 A3055 RMK AO2 PWINO FZRANO $
PAPM 201156Z AUTO 16006KT OVC032 00/M01 A3053 RMK AO2 SLP341 70005 T00001006 10011 20000 51038 PWINO FZRANO $
PAPM 201056Z AUTO 17005KT OVC037 00/M01 A3049 RMK AO2 SLP327 T00001006 PWINO FZRANO $
PAPM 200956Z AUTO 15006KT OVC039 00/M01 A3046 RMK AO2 SLP317 T00001006 PWINO FZRANO $
PAPM 200856Z AUTO 18007KT OVC041 01/00 A3042 RMK AO2 SLP303 T00060000 400220000 53030 PWINO FZRANO $
PAPM 200756Z AUTO 16008KT OVC034 00/M01 A3039 RMK AO2 SLP292 T00001006 PWINO FZRANO $
PAPM 200656Z AUTO 18012KT OVC036 01/00 A3035 RMK AO2 SLP281 T00060000 PWINO FZRANO $
PAPM 200556Z AUTO 17012KT FEW005 OVC038 01/00 A3033 RMK AO2 SLP273 60002 T00110000 10022 20011 53024 PWINO FZRANO $
PAPM 200456Z AUTO 16012KT SCT009 OVC036 01/00 A3029 RMK AO2 SLP261 T00110000 PWINO FZRANO $
PAPM 200451Z AUTO 15013KT SCT009 OVC036 01/00 A3029 RMK AO2 PWINO FZRANO $
PAPM 200356Z AUTO 16018KT OVC009 02/01 A3026 RMK AO2 CIG 008V013 SLP249 T00170006 PWINO FZRANO $
PAPM 200256Z AUTO 16021KT OVC011 02/01 A3022 RMK AO2 SLP237 60002 T00220011 53006 PWINO FZRANO $
PAPM 200156Z AUTO 14017G24KT OVC013 02/01 A3021 RMK AO2 PK WND 15026/0142 SLP233 P0001 T00220011 PWINO FZRANO $
PAPM 200148Z AUTO 14022G26KT OVC015 02/01 A3021 RMK AO2 PK WND 15026/0142 P0001 PWINO FZRANO $
PAPM 200119Z AUTO 13015KT OVC011 02/01 A3020 RMK AO2 P0001 PWINO FZRANO $
PAPM 200056Z AUTO 13017KT OVC009 02/01 A3021 RMK AO2 CIG 008V013 SLP233 P0001 T00170006 PWINO FZRANO $
PAPM 200037Z AUTO 14018KT BKN014 OVC019 02/00 A3022 RMK AO2 P0001 PWINO FZRANO $
PAPM 192356Z AUTO 13014KT BKN015 OVC033 01/M01 A3020 RMK AO2 PK WND 13027/2318 SLP231 P0003 60003 T00111006 10022 20006 50000 PWINO FZRANO $
PAPM 192353Z AUTO 12014KT BKN015 OVC033 01/M01 A3020 RMK AO2 PK WND 13027/2318 P0002 PWINO FZRANO $